sensor_id;sensor_type;location;lat;lon;timestamp;temperature;humidity
59098;DHT22;44883;52.760;6.610;2022-08-19T00:00:14;16.60;99.90
59098;DHT22;44883;52.760;6.610;2022-08-19T00:02:41;16.50;99.90
59098;DHT22;44883;52.760;6.610;2022-08-19T00:05:08;16.50;99.90
59098;DHT22;44883;52.760;6.610;2022-08-19T00:07:34;16.50;99.90
59098;DHT22;44883;52.760;6.610;2022-08-19T00:10:00;16.40;99.90
59098;DHT22;44883;52.760;6.610;2022-08-19T00:12:26;16.40;99.90
59098;DHT22;44883;52.760;6.610;2022-08-19T00:14:52;16.50;99.90
59098;DHT22;44883;52.760;6.610;2022-08-19T00:17:19;16.50;99.90
59098;DHT22;44883;52.760;6.610;2022-08-19T00:19:45;16.60;99.90
59098;DHT22;44883;52.760;6.610;2022-08-19T00:22:11;16.60;99.90
59098;DHT22;44883;52.760;6.610;2022-08-19T00:24:36;16.60;99.90
59098;DHT22;44883;52.760;6.610;2022-08-19T00:27:04;16.60;99.90
59098;DHT22;44883;52.760;6.610;2022-08-19T00:29:30;16.60;99.90
59098;DHT22;44883;52.760;6.610;2022-08-19T00:31:56;16.60;99.90
59098;DHT22;44883;52.760;6.610;2022-08-19T00:34:24;16.60;99.90
59098;DHT22;44883;52.760;6.610;2022-08-19T00:36:51;16.60;99.90
59098;DHT22;44883;52.760;6.610;2022-08-19T00:39:17;16.60;99.90
59098;DHT22;44883;52.760;6.610;2022-08-19T00:41:44;16.60;99.90
59098;DHT22;44883;52.760;6.610;2022-08-19T00:44:21;16.60;99.90
59098;DHT22;44883;52.760;6.610;2022-08-19T00:46:49;16.60;99.90
59098;DHT22;44883;52.760;6.610;2022-08-19T00:49:36;16.60;99.90
59098;DHT22;44883;52.760;6.610;2022-08-19T00:52:06;16.50;99.90
59098;DHT22;44883;52.760;6.610;2022-08-19T00:54:36;16.40;99.90
59098;DHT22;44883;52.760;6.610;2022-08-19T00:57:04;16.40;99.90
59098;DHT22;44883;52.760;6.610;2022-08-19T00:59:31;16.30;99.90
59098;DHT22;44883;52.760;6.610;2022-08-19T01:01:59;16.30;99.90
59098;DHT22;44883;52.760;6.610;2022-08-19T01:04:25;16.20;99.90
59098;DHT22;44883;52.760;6.610;2022-08-19T01:06:50;16.20;99.90
59098;DHT22;44883;52.760;6.610;2022-08-19T01:09:16;16.10;99.90
59098;DHT22;44883;52.760;6.610;2022-08-19T01:11:43;16.10;99.90
59098;DHT22;44883;52.760;6.610;2022-08-19T01:14:10;16.10;99.90
59098;DHT22;44883;52.760;6.610;2022-08-19T01:16:37;16.10;99.90
59098;DHT22;44883;52.760;6.610;2022-08-19T01:19:10;16.10;99.90
59098;DHT22;44883;52.760;6.610;2022-08-19T01:21:43;16.00;99.90
59098;DHT22;44883;52.760;6.610;2022-08-19T01:24:10;16.00;99.90
59098;DHT22;44883;52.760;6.610;2022-08-19T01:26:41;16.00;99.90
59098;DHT22;44883;52.760;6.610;2022-08-19T01:29:08;16.00;99.90
59098;DHT22;44883;52.760;6.610;2022-08-19T01:31:35;16.00;99.90
59098;DHT22;44883;52.760;6.610;2022-08-19T01:34:02;16.00;99.90
59098;DHT22;44883;52.760;6.610;2022-08-19T01:36:35;16.00;99.90
59098;DHT22;44883;52.760;6.610;2022-08-19T01:39:08;16.00;99.90
59098;DHT22;44883;52.760;6.610;2022-08-19T01:41:34;16.00;99.90
59098;DHT22;44883;52.760;6.610;2022-08-19T01:44:00;16.00;99.90
59098;DHT22;44883;52.760;6.610;2022-08-19T01:46:29;16.00;99.90
59098;DHT22;44883;52.760;6.610;2022-08-19T01:48:55;15.90;99.90
59098;DHT22;44883;52.760;6.610;2022-08-19T01:51:21;15.90;99.90
59098;DHT22;44883;52.760;6.610;2022-08-19T01:53:51;15.90;99.90
59098;DHT22;44883;52.760;6.610;2022-08-19T01:56:17;15.90;99.90
59098;DHT22;44883;52.760;6.610;2022-08-19T01:59:05;15.90;99.90
59098;DHT22;44883;52.760;6.610;2022-08-19T02:01:32;15.80;99.90
59098;DHT22;44883;52.760;6.610;2022-08-19T02:03:59;15.80;99.90
59098;DHT22;44883;52.760;6.610;2022-08-19T02:06:26;15.80;99.90
59098;DHT22;44883;52.760;6.610;2022-08-19T02:08:52;15.80;99.90
59098;DHT22;44883;52.760;6.610;2022-08-19T02:11:21;15.70;99.90
59098;DHT22;44883;52.760;6.610;2022-08-19T02:13:47;15.70;99.90
59098;DHT22;44883;52.760;6.610;2022-08-19T02:16:12;15.60;99.90
59098;DHT22;44883;52.760;6.610;2022-08-19T02:18:38;15.50;99.90
59098;DHT22;44883;52.760;6.610;2022-08-19T02:21:03;15.50;99.90
59098;DHT22;44883;52.760;6.610;2022-08-19T02:23:29;15.40;99.90
59098;DHT22;44883;52.760;6.610;2022-08-19T02:25:56;15.40;99.90
59098;DHT22;44883;52.760;6.610;2022-08-19T02:28:22;15.30;99.90
59098;DHT22;44883;52.760;6.610;2022-08-19T02:30:48;15.30;99.90
59098;DHT22;44883;52.760;6.610;2022-08-19T02:33:15;15.20;99.90
59098;DHT22;44883;52.760;6.610;2022-08-19T02:35:42;15.10;99.90
59098;DHT22;44883;52.760;6.610;2022-08-19T02:38:08;15.10;99.90
59098;DHT22;44883;52.760;6.610;2022-08-19T02:40:55;15.10;99.90
59098;DHT22;44883;52.760;6.610;2022-08-19T02:43:22;15.10;99.90
59098;DHT22;44883;52.760;6.610;2022-08-19T02:45:48;15.10;99.90
59098;DHT22;44883;52.760;6.610;2022-08-19T02:48:19;15.10;99.90
59098;DHT22;44883;52.760;6.610;2022-08-19T02:50:46;15.10;99.90
59098;DHT22;44883;52.760;6.610;2022-08-19T02:53:12;15.10;99.90
59098;DHT22;44883;52.760;6.610;2022-08-19T02:55:46;15.10;99.90
59098;DHT22;44883;52.760;6.610;2022-08-19T02:58:12;15.10;99.90
59098;DHT22;44883;52.760;6.610;2022-08-19T03:00:46;15.00;99.90
59098;DHT22;44883;52.760;6.610;2022-08-19T03:03:12;14.90;99.90
59098;DHT22;44883;52.760;6.610;2022-08-19T03:05:39;14.90;99.90
59098;DHT22;44883;52.760;6.610;2022-08-19T03:08:05;15.00;99.90
59098;DHT22;44883;52.760;6.610;2022-08-19T03:10:32;15.00;99.90
59098;DHT22;44883;52.760;6.610;2022-08-19T03:12:57;15.00;99.90
59098;DHT22;44883;52.760;6.610;2022-08-19T03:15:23;14.90;99.90
59098;DHT22;44883;52.760;6.610;2022-08-19T03:17:49;14.90;99.90
59098;DHT22;44883;52.760;6.610;2022-08-19T03:20:15;14.90;99.90
59098;DHT22;44883;52.760;6.610;2022-08-19T03:22:40;14.90;99.90
59098;DHT22;44883;52.760;6.610;2022-08-19T03:25:06;14.90;99.90
59098;DHT22;44883;52.760;6.610;2022-08-19T03:27:32;14.90;99.90
59098;DHT22;44883;52.760;6.610;2022-08-19T03:29:57;14.90;99.90
59098;DHT22;44883;52.760;6.610;2022-08-19T03:32:23;14.90;99.90
59098;DHT22;44883;52.760;6.610;2022-08-19T03:34:49;14.90;99.90
59098;DHT22;44883;52.760;6.610;2022-08-19T03:37:16;14.90;99.90
59098;DHT22;44883;52.760;6.610;2022-08-19T03:39:41;14.80;99.90
59098;DHT22;44883;52.760;6.610;2022-08-19T03:42:08;14.80;99.90
59098;DHT22;44883;52.760;6.610;2022-08-19T03:44:34;14.80;99.90
59098;DHT22;44883;52.760;6.610;2022-08-19T03:47:01;14.80;99.90
59098;DHT22;44883;52.760;6.610;2022-08-19T03:49:29;14.80;99.90
59098;DHT22;44883;52.760;6.610;2022-08-19T03:51:57;14.80;99.90
59098;DHT22;44883;52.760;6.610;2022-08-19T03:54:25;14.80;99.90
59098;DHT22;44883;52.760;6.610;2022-08-19T03:56:53;14.70;99.90
59098;DHT22;44883;52.760;6.610;2022-08-19T03:59:23;14.70;99.90
59098;DHT22;44883;52.760;6.610;2022-08-19T04:01:50;14.60;99.90
59098;DHT22;44883;52.760;6.610;2022-08-19T04:04:15;14.50;99.90
59098;DHT22;44883;52.760;6.610;2022-08-19T04:06:43;14.50;99.90
59098;DHT22;44883;52.760;6.610;2022-08-19T04:09:10;14.50;99.90
59098;DHT22;44883;52.760;6.610;2022-08-19T04:11:42;14.50;99.90
59098;DHT22;44883;52.760;6.610;2022-08-19T04:14:10;14.50;99.90
59098;DHT22;44883;52.760;6.610;2022-08-19T04:16:36;14.50;99.90
59098;DHT22;44883;52.760;6.610;2022-08-19T04:19:03;14.40;99.90
59098;DHT22;44883;52.760;6.610;2022-08-19T04:21:29;14.50;99.90
59098;DHT22;44883;52.760;6.610;2022-08-19T04:23:55;14.50;99.90
59098;DHT22;44883;52.760;6.610;2022-08-19T04:26:24;14.40;99.90
59098;DHT22;44883;52.760;6.610;2022-08-19T04:28:50;14.40;99.90
59098;DHT22;44883;52.760;6.610;2022-08-19T04:31:28;14.30;99.90
59098;DHT22;44883;52.760;6.610;2022-08-19T04:33:59;14.40;99.90
59098;DHT22;44883;52.760;6.610;2022-08-19T04:36:28;14.40;99.90
59098;DHT22;44883;52.760;6.610;2022-08-19T04:38:58;14.40;99.90
59098;DHT22;44883;52.760;6.610;2022-08-19T04:41:25;14.40;99.90
59098;DHT22;44883;52.760;6.610;2022-08-19T04:44:09;14.40;99.90
59098;DHT22;44883;52.760;6.610;2022-08-19T04:46:36;14.40;99.90
59098;DHT22;44883;52.760;6.610;2022-08-19T04:49:03;14.30;99.90
59098;DHT22;44883;52.760;6.610;2022-08-19T04:51:32;14.30;99.90
59098;DHT22;44883;52.760;6.610;2022-08-19T04:53:58;14.40;99.90
59098;DHT22;44883;52.760;6.610;2022-08-19T04:56:25;14.40;99.90
59098;DHT22;44883;52.760;6.610;2022-08-19T04:58:53;14.40;99.90
59098;DHT22;44883;52.760;6.610;2022-08-19T05:01:26;14.50;99.90
59098;DHT22;44883;52.760;6.610;2022-08-19T05:03:54;14.50;99.90
59098;DHT22;44883;52.760;6.610;2022-08-19T05:06:21;14.60;99.90
59098;DHT22;44883;52.760;6.610;2022-08-19T05:08:48;14.70;99.90
59098;DHT22;44883;52.760;6.610;2022-08-19T05:11:19;14.80;99.90
59098;DHT22;44883;52.760;6.610;2022-08-19T05:13:48;14.80;99.90
59098;DHT22;44883;52.760;6.610;2022-08-19T05:16:16;14.90;99.90
59098;DHT22;44883;52.760;6.610;2022-08-19T05:18:42;14.90;99.90
59098;DHT22;44883;52.760;6.610;2022-08-19T05:21:28;15.00;99.90
59098;DHT22;44883;52.760;6.610;2022-08-19T05:24:14;15.20;99.90
59098;DHT22;44883;52.760;6.610;2022-08-19T05:26:43;15.50;99.90
59098;DHT22;44883;52.760;6.610;2022-08-19T05:29:13;15.90;99.90
59098;DHT22;44883;52.760;6.610;2022-08-19T05:31:39;16.30;99.90
59098;DHT22;44883;52.760;6.610;2022-08-19T05:34:05;16.50;99.90
59098;DHT22;44883;52.760;6.610;2022-08-19T05:36:39;17.00;99.90
59098;DHT22;44883;52.760;6.610;2022-08-19T05:39:07;17.80;99.90
59098;DHT22;44883;52.760;6.610;2022-08-19T05:41:34;18.50;99.90
59098;DHT22;44883;52.760;6.610;2022-08-19T05:44:04;19.20;99.90
59098;DHT22;44883;52.760;6.610;2022-08-19T05:46:32;20.20;99.10
59098;DHT22;44883;52.760;6.610;2022-08-19T05:48:58;20.90;97.80
59098;DHT22;44883;52.760;6.610;2022-08-19T05:51:24;21.70;96.00
59098;DHT22;44883;52.760;6.610;2022-08-19T05:53:50;22.60;93.80
59098;DHT22;44883;52.760;6.610;2022-08-19T05:56:17;23.20;91.90
59098;DHT22;44883;52.760;6.610;2022-08-19T05:58:44;23.60;90.60
59098;DHT22;44883;52.760;6.610;2022-08-19T06:01:17;24.20;89.00
59098;DHT22;44883;52.760;6.610;2022-08-19T06:03:43;24.80;81.50
59098;DHT22;44883;52.760;6.610;2022-08-19T06:06:11;25.40;80.80
59098;DHT22;44883;52.760;6.610;2022-08-19T06:08:37;25.90;75.30
59098;DHT22;44883;52.760;6.610;2022-08-19T06:13:39;26.90;61.70
59098;DHT22;44883;52.760;6.610;2022-08-19T06:16:05;27.50;64.10
59098;DHT22;44883;52.760;6.610;2022-08-19T06:18:31;27.80;61.20
59098;DHT22;44883;52.760;6.610;2022-08-19T06:20:57;27.90;59.10
59098;DHT22;44883;52.760;6.610;2022-08-19T06:23:23;28.20;58.20
59098;DHT22;44883;52.760;6.610;2022-08-19T06:25:48;28.40;57.60
59098;DHT22;44883;52.760;6.610;2022-08-19T06:28:14;28.80;55.50
59098;DHT22;44883;52.760;6.610;2022-08-19T06:30:39;29.20;54.90
59098;DHT22;44883;52.760;6.610;2022-08-19T06:33:05;29.20;54.50
59098;DHT22;44883;52.760;6.610;2022-08-19T06:35:30;29.60;53.20
59098;DHT22;44883;52.760;6.610;2022-08-19T06:37:56;29.90;53.50
59098;DHT22;44883;52.760;6.610;2022-08-19T06:40:22;30.00;52.60
59098;DHT22;44883;52.760;6.610;2022-08-19T06:42:47;30.30;52.70
59098;DHT22;44883;52.760;6.610;2022-08-19T06:45:13;30.60;51.70
59098;DHT22;44883;52.760;6.610;2022-08-19T06:47:40;30.70;51.80
59098;DHT22;44883;52.760;6.610;2022-08-19T06:50:05;31.10;51.50
59098;DHT22;44883;52.760;6.610;2022-08-19T06:52:33;31.30;51.00
59098;DHT22;44883;52.760;6.610;2022-08-19T06:55:00;31.70;49.80
59098;DHT22;44883;52.760;6.610;2022-08-19T06:57:26;31.90;49.20
59098;DHT22;44883;52.760;6.610;2022-08-19T06:59:52;32.30;48.40
59098;DHT22;44883;52.760;6.610;2022-08-19T07:02:19;32.50;48.10
59098;DHT22;44883;52.760;6.610;2022-08-19T07:04:45;32.60;47.60
59098;DHT22;44883;52.760;6.610;2022-08-19T07:07:13;32.70;47.40
59098;DHT22;44883;52.760;6.610;2022-08-19T07:09:42;32.70;46.80
59098;DHT22;44883;52.760;6.610;2022-08-19T07:12:14;32.60;46.70
59098;DHT22;44883;52.760;6.610;2022-08-19T07:14:43;32.50;46.00
59098;DHT22;44883;52.760;6.610;2022-08-19T07:17:12;32.20;46.60
59098;DHT22;44883;52.760;6.610;2022-08-19T07:19:39;32.20;47.40
59098;DHT22;44883;52.760;6.610;2022-08-19T07:22:06;32.40;47.40
59098;DHT22;44883;52.760;6.610;2022-08-19T07:24:33;32.80;46.70
59098;DHT22;44883;52.760;6.610;2022-08-19T07:27:00;33.10;47.20
59098;DHT22;44883;52.760;6.610;2022-08-19T07:29:29;33.50;45.80
59098;DHT22;44883;52.760;6.610;2022-08-19T07:31:56;33.60;45.50
59098;DHT22;44883;52.760;6.610;2022-08-19T07:34:24;33.80;45.60
59098;DHT22;44883;52.760;6.610;2022-08-19T07:36:50;34.00;45.70
59098;DHT22;44883;52.760;6.610;2022-08-19T07:39:21;34.20;44.70
59098;DHT22;44883;52.760;6.610;2022-08-19T07:41:47;34.40;44.90
59098;DHT22;44883;52.760;6.610;2022-08-19T07:44:13;34.50;44.70
59098;DHT22;44883;52.760;6.610;2022-08-19T07:46:42;34.80;44.50
59098;DHT22;44883;52.760;6.610;2022-08-19T07:49:09;34.90;44.10
59098;DHT22;44883;52.760;6.610;2022-08-19T07:51:40;35.10;43.00
59098;DHT22;44883;52.760;6.610;2022-08-19T07:54:05;35.30;42.20
59098;DHT22;44883;52.760;6.610;2022-08-19T07:56:31;35.30;42.30
59098;DHT22;44883;52.760;6.610;2022-08-19T07:58:57;35.20;42.70
59098;DHT22;44883;52.760;6.610;2022-08-19T08:01:25;35.10;43.20
59098;DHT22;44883;52.760;6.610;2022-08-19T08:03:52;35.30;42.40
59098;DHT22;44883;52.760;6.610;2022-08-19T08:06:37;35.40;41.70
59098;DHT22;44883;52.760;6.610;2022-08-19T08:09:33;35.30;41.90
59098;DHT22;44883;52.760;6.610;2022-08-19T08:12:21;35.40;40.80
59098;DHT22;44883;52.760;6.610;2022-08-19T08:14:52;35.30;41.30
59098;DHT22;44883;52.760;6.610;2022-08-19T08:17:19;35.40;41.70
59098;DHT22;44883;52.760;6.610;2022-08-19T08:19:45;35.50;41.90
59098;DHT22;44883;52.760;6.610;2022-08-19T08:22:14;35.70;41.60
59098;DHT22;44883;52.760;6.610;2022-08-19T08:25:05;35.80;41.60
59098;DHT22;44883;52.760;6.610;2022-08-19T08:27:31;35.80;41.80
59098;DHT22;44883;52.760;6.610;2022-08-19T08:29:57;36.30;41.10
59098;DHT22;44883;52.760;6.610;2022-08-19T08:32:23;36.20;41.50
59098;DHT22;44883;52.760;6.610;2022-08-19T08:34:49;36.50;41.80
59098;DHT22;44883;52.760;6.610;2022-08-19T08:37:14;36.50;40.40
59098;DHT22;44883;52.760;6.610;2022-08-19T08:39:40;36.60;39.90
59098;DHT22;44883;52.760;6.610;2022-08-19T08:42:20;36.70;39.40
59098;DHT22;44883;52.760;6.610;2022-08-19T08:44:59;36.80;39.80
59098;DHT22;44883;52.760;6.610;2022-08-19T08:47:26;36.80;39.50
59098;DHT22;44883;52.760;6.610;2022-08-19T08:50:02;36.80;39.60
59098;DHT22;44883;52.760;6.610;2022-08-19T08:52:33;36.90;38.20
59098;DHT22;44883;52.760;6.610;2022-08-19T08:55:08;36.90;39.20
59098;DHT22;44883;52.760;6.610;2022-08-19T08:57:49;36.90;39.00
59098;DHT22;44883;52.760;6.610;2022-08-19T09:00:38;36.80;39.80
59098;DHT22;44883;52.760;6.610;2022-08-19T09:03:24;37.00;39.10
59098;DHT22;44883;52.760;6.610;2022-08-19T09:06:03;36.90;36.90
59098;DHT22;44883;52.760;6.610;2022-08-19T09:08:40;36.80;38.10
59098;DHT22;44883;52.760;6.610;2022-08-19T09:11:10;36.80;39.20
59098;DHT22;44883;52.760;6.610;2022-08-19T09:16:21;36.80;39.20
59098;DHT22;44883;52.760;6.610;2022-08-19T09:18:51;36.80;39.50
59098;DHT22;44883;52.760;6.610;2022-08-19T09:21:22;36.90;39.60
59098;DHT22;44883;52.760;6.610;2022-08-19T09:23:48;37.00;39.30
59098;DHT22;44883;52.760;6.610;2022-08-19T09:26:17;36.80;39.60
59098;DHT22;44883;52.760;6.610;2022-08-19T09:28:44;36.90;39.60
59098;DHT22;44883;52.760;6.610;2022-08-19T09:31:12;36.90;39.40
59098;DHT22;44883;52.760;6.610;2022-08-19T09:33:38;36.60;39.20
59098;DHT22;44883;52.760;6.610;2022-08-19T09:36:08;36.60;39.10
59098;DHT22;44883;52.760;6.610;2022-08-19T09:38:35;36.70;39.70
59098;DHT22;44883;52.760;6.610;2022-08-19T09:41:06;36.90;39.10
59098;DHT22;44883;52.760;6.610;2022-08-19T09:43:33;36.80;40.10
59098;DHT22;44883;52.760;6.610;2022-08-19T09:46:06;36.60;40.10
59098;DHT22;44883;52.760;6.610;2022-08-19T09:48:35;36.70;38.30
59098;DHT22;44883;52.760;6.610;2022-08-19T09:51:10;36.40;38.50
59098;DHT22;44883;52.760;6.610;2022-08-19T09:53:37;36.40;37.50
59098;DHT22;44883;52.760;6.610;2022-08-19T09:56:04;36.40;38.40
59098;DHT22;44883;52.760;6.610;2022-08-19T09:58:31;36.40;38.50
59098;DHT22;44883;52.760;6.610;2022-08-19T10:00:58;36.40;38.70
59098;DHT22;44883;52.760;6.610;2022-08-19T10:03:26;36.40;39.00
59098;DHT22;44883;52.760;6.610;2022-08-19T10:05:53;36.30;39.20
59098;DHT22;44883;52.760;6.610;2022-08-19T10:08:41;36.30;38.40
59098;DHT22;44883;52.760;6.610;2022-08-19T10:11:06;36.20;39.00
59098;DHT22;44883;52.760;6.610;2022-08-19T10:13:35;36.10;39.70
59098;DHT22;44883;52.760;6.610;2022-08-19T10:16:21;35.90;37.70
59098;DHT22;44883;52.760;6.610;2022-08-19T10:18:48;35.90;39.10
59098;DHT22;44883;52.760;6.610;2022-08-19T10:21:25;35.90;39.80
59098;DHT22;44883;52.760;6.610;2022-08-19T10:23:55;36.00;38.10
59098;DHT22;44883;52.760;6.610;2022-08-19T10:26:26;35.70;39.40
59098;DHT22;44883;52.760;6.610;2022-08-19T10:28:52;35.80;39.80
59098;DHT22;44883;52.760;6.610;2022-08-19T10:31:20;35.80;38.90
59098;DHT22;44883;52.760;6.610;2022-08-19T10:33:50;35.80;38.30
59098;DHT22;44883;52.760;6.610;2022-08-19T10:36:25;35.60;38.40
59098;DHT22;44883;52.760;6.610;2022-08-19T10:38:53;35.60;39.60
59098;DHT22;44883;52.760;6.610;2022-08-19T10:41:23;35.50;39.40
59098;DHT22;44883;52.760;6.610;2022-08-19T10:43:54;35.20;38.20
59098;DHT22;44883;52.760;6.610;2022-08-19T10:46:21;35.10;38.90
59098;DHT22;44883;52.760;6.610;2022-08-19T10:48:48;35.20;38.70
59098;DHT22;44883;52.760;6.610;2022-08-19T10:51:14;35.10;39.30
59098;DHT22;44883;52.760;6.610;2022-08-19T10:53:59;35.20;38.50
59098;DHT22;44883;52.760;6.610;2022-08-19T10:56:25;34.90;39.80
59098;DHT22;44883;52.760;6.610;2022-08-19T10:59:10;34.30;39.40
59098;DHT22;44883;52.760;6.610;2022-08-19T11:01:40;33.60;40.30
59098;DHT22;44883;52.760;6.610;2022-08-19T11:04:06;32.80;40.40
59098;DHT22;44883;52.760;6.610;2022-08-19T11:06:35;32.30;42.00
59098;DHT22;44883;52.760;6.610;2022-08-19T11:09:02;32.00;42.90
59098;DHT22;44883;52.760;6.610;2022-08-19T11:11:28;31.80;43.40
59098;DHT22;44883;52.760;6.610;2022-08-19T11:13:54;31.90;44.40
59098;DHT22;44883;52.760;6.610;2022-08-19T11:16:23;32.20;45.10
59098;DHT22;44883;52.760;6.610;2022-08-19T11:18:53;32.30;45.00
59098;DHT22;44883;52.760;6.610;2022-08-19T11:21:22;32.20;43.50
59098;DHT22;44883;52.760;6.610;2022-08-19T11:23:51;32.20;44.20
59098;DHT22;44883;52.760;6.610;2022-08-19T11:26:18;32.20;44.30
59098;DHT22;44883;52.760;6.610;2022-08-19T11:28:45;32.30;44.80
59098;DHT22;44883;52.760;6.610;2022-08-19T11:31:16;32.10;44.70
59098;DHT22;44883;52.760;6.610;2022-08-19T11:33:42;32.00;45.20
59098;DHT22;44883;52.760;6.610;2022-08-19T11:36:08;32.10;45.60
59098;DHT22;44883;52.760;6.610;2022-08-19T11:38:35;32.10;45.90
59098;DHT22;44883;52.760;6.610;2022-08-19T11:41:04;32.00;46.70
59098;DHT22;44883;52.760;6.610;2022-08-19T11:43:30;32.00;47.30
59098;DHT22;44883;52.760;6.610;2022-08-19T11:45:56;32.00;47.20
59098;DHT22;44883;52.760;6.610;2022-08-19T11:48:23;31.70;47.50
59098;DHT22;44883;52.760;6.610;2022-08-19T11:50:50;31.70;47.60
59098;DHT22;44883;52.760;6.610;2022-08-19T11:53:17;31.60;46.50
59098;DHT22;44883;52.760;6.610;2022-08-19T11:55:44;31.50;45.90
59098;DHT22;44883;52.760;6.610;2022-08-19T11:58:11;31.30;46.30
59098;DHT22;44883;52.760;6.610;2022-08-19T12:00:38;31.10;47.90
59098;DHT22;44883;52.760;6.610;2022-08-19T12:03:04;31.00;46.60
59098;DHT22;44883;52.760;6.610;2022-08-19T12:05:29;30.70;47.80
59098;DHT22;44883;52.760;6.610;2022-08-19T12:07:55;30.70;48.50
59098;DHT22;44883;52.760;6.610;2022-08-19T12:10:21;30.70;48.60
59098;DHT22;44883;52.760;6.610;2022-08-19T12:12:47;30.60;48.40
59098;DHT22;44883;52.760;6.610;2022-08-19T12:15:13;30.60;48.50
59098;DHT22;44883;52.760;6.610;2022-08-19T12:17:42;30.50;48.70
59098;DHT22;44883;52.760;6.610;2022-08-19T12:20:10;30.50;48.70
59098;DHT22;44883;52.760;6.610;2022-08-19T12:22:37;30.50;48.80
59098;DHT22;44883;52.760;6.610;2022-08-19T12:25:04;30.40;49.20
59098;DHT22;44883;52.760;6.610;2022-08-19T12:27:30;30.40;48.70
59098;DHT22;44883;52.760;6.610;2022-08-19T12:29:56;30.20;47.90
59098;DHT22;44883;52.760;6.610;2022-08-19T12:32:22;30.00;48.60
59098;DHT22;44883;52.760;6.610;2022-08-19T12:34:49;29.90;49.00
59098;DHT22;44883;52.760;6.610;2022-08-19T12:37:14;30.00;48.60
59098;DHT22;44883;52.760;6.610;2022-08-19T12:39:41;30.00;46.90
59098;DHT22;44883;52.760;6.610;2022-08-19T12:42:08;30.10;47.20
59098;DHT22;44883;52.760;6.610;2022-08-19T12:44:35;30.20;45.00
59098;DHT22;44883;52.760;6.610;2022-08-19T12:47:01;30.30;46.30
59098;DHT22;44883;52.760;6.610;2022-08-19T12:49:29;30.30;45.50
59098;DHT22;44883;52.760;6.610;2022-08-19T12:51:55;30.20;45.30
59098;DHT22;44883;52.760;6.610;2022-08-19T12:54:20;30.10;45.30
59098;DHT22;44883;52.760;6.610;2022-08-19T12:56:46;29.90;46.00
59098;DHT22;44883;52.760;6.610;2022-08-19T12:59:11;29.90;46.30
59098;DHT22;44883;52.760;6.610;2022-08-19T13:01:37;30.00;47.50
59098;DHT22;44883;52.760;6.610;2022-08-19T13:04:03;30.10;48.00
59098;DHT22;44883;52.760;6.610;2022-08-19T13:06:29;30.20;47.50
59098;DHT22;44883;52.760;6.610;2022-08-19T13:08:55;30.10;47.90
59098;DHT22;44883;52.760;6.610;2022-08-19T13:11:22;30.20;47.20
59098;DHT22;44883;52.760;6.610;2022-08-19T13:13:51;30.20;46.80
59098;DHT22;44883;52.760;6.610;2022-08-19T13:16:18;30.30;47.00
59098;DHT22;44883;52.760;6.610;2022-08-19T13:18:46;30.30;46.80
59098;DHT22;44883;52.760;6.610;2022-08-19T13:21:13;30.20;46.60
59098;DHT22;44883;52.760;6.610;2022-08-19T13:23:39;30.10;45.90
59098;DHT22;44883;52.760;6.610;2022-08-19T13:26:07;30.10;46.60
59098;DHT22;44883;52.760;6.610;2022-08-19T13:28:34;30.10;46.10
59098;DHT22;44883;52.760;6.610;2022-08-19T13:31:20;30.20;45.30
59098;DHT22;44883;52.760;6.610;2022-08-19T13:34:05;30.20;45.30
59098;DHT22;44883;52.760;6.610;2022-08-19T13:36:32;30.40;45.50
59098;DHT22;44883;52.760;6.610;2022-08-19T13:38:58;30.60;46.00
59098;DHT22;44883;52.760;6.610;2022-08-19T13:41:24;30.60;46.10
59098;DHT22;44883;52.760;6.610;2022-08-19T13:43:50;30.80;46.20
59098;DHT22;44883;52.760;6.610;2022-08-19T13:46:16;30.80;46.80
59098;DHT22;44883;52.760;6.610;2022-08-19T13:48:42;30.90;45.90
59098;DHT22;44883;52.760;6.610;2022-08-19T13:51:08;30.90;47.40
59098;DHT22;44883;52.760;6.610;2022-08-19T13:53:38;30.90;46.30
59098;DHT22;44883;52.760;6.610;2022-08-19T13:56:13;30.90;45.50
59098;DHT22;44883;52.760;6.610;2022-08-19T13:58:39;30.90;44.50
59098;DHT22;44883;52.760;6.610;2022-08-19T14:01:05;30.70;44.20
59098;DHT22;44883;52.760;6.610;2022-08-19T14:03:32;30.60;44.90
59098;DHT22;44883;52.760;6.610;2022-08-19T14:05:58;30.50;45.80
59098;DHT22;44883;52.760;6.610;2022-08-19T14:08:25;30.50;45.80
59098;DHT22;44883;52.760;6.610;2022-08-19T14:10:51;30.60;45.70
59098;DHT22;44883;52.760;6.610;2022-08-19T14:13:19;30.50;45.40
59098;DHT22;44883;52.760;6.610;2022-08-19T14:15:45;30.30;45.90
59098;DHT22;44883;52.760;6.610;2022-08-19T14:18:13;30.10;46.00
59098;DHT22;44883;52.760;6.610;2022-08-19T14:20:38;29.90;47.00
59098;DHT22;44883;52.760;6.610;2022-08-19T14:23:04;29.70;47.00
59098;DHT22;44883;52.760;6.610;2022-08-19T14:25:33;29.60;47.70
59098;DHT22;44883;52.760;6.610;2022-08-19T14:27:59;29.60;48.20
59098;DHT22;44883;52.760;6.610;2022-08-19T14:30:31;29.50;48.30
59098;DHT22;44883;52.760;6.610;2022-08-19T14:32:58;29.60;49.10
59098;DHT22;44883;52.760;6.610;2022-08-19T14:35:25;29.70;49.10
59098;DHT22;44883;52.760;6.610;2022-08-19T14:37:52;29.60;48.70
59098;DHT22;44883;52.760;6.610;2022-08-19T14:40:22;29.40;48.90
59098;DHT22;44883;52.760;6.610;2022-08-19T14:42:55;29.30;50.10
59098;DHT22;44883;52.760;6.610;2022-08-19T14:45:25;29.10;51.20
59098;DHT22;44883;52.760;6.610;2022-08-19T14:47:52;29.00;53.10
59098;DHT22;44883;52.760;6.610;2022-08-19T14:50:18;28.90;53.80
59098;DHT22;44883;52.760;6.610;2022-08-19T14:52:46;28.90;53.60
59098;DHT22;44883;52.760;6.610;2022-08-19T14:55:14;28.90;54.30
59098;DHT22;44883;52.760;6.610;2022-08-19T14:57:41;29.10;55.20
59098;DHT22;44883;52.760;6.610;2022-08-19T15:00:08;29.30;54.50
59098;DHT22;44883;52.760;6.610;2022-08-19T15:02:38;29.30;54.50
59098;DHT22;44883;52.760;6.610;2022-08-19T15:05:04;29.10;54.30
59098;DHT22;44883;52.760;6.610;2022-08-19T15:07:30;28.90;55.00
59098;DHT22;44883;52.760;6.610;2022-08-19T15:09:57;28.70;55.80
59098;DHT22;44883;52.760;6.610;2022-08-19T15:12:23;28.60;58.10
59098;DHT22;44883;52.760;6.610;2022-08-19T15:14:49;28.40;59.10
59098;DHT22;44883;52.760;6.610;2022-08-19T15:17:18;28.30;60.70
59098;DHT22;44883;52.760;6.610;2022-08-19T15:19:44;28.10;61.90
59098;DHT22;44883;52.760;6.610;2022-08-19T15:22:10;28.10;62.60
59098;DHT22;44883;52.760;6.610;2022-08-19T15:24:36;28.00;64.30
59098;DHT22;44883;52.760;6.610;2022-08-19T15:27:03;27.80;66.30
59098;DHT22;44883;52.760;6.610;2022-08-19T15:29:30;27.70;68.80
59098;DHT22;44883;52.760;6.610;2022-08-19T15:31:56;27.70;70.80
59098;DHT22;44883;52.760;6.610;2022-08-19T15:34:23;27.50;70.30
59098;DHT22;44883;52.760;6.610;2022-08-19T15:36:51;27.50;70.40
59098;DHT22;44883;52.760;6.610;2022-08-19T15:39:16;27.40;71.20
59098;DHT22;44883;52.760;6.610;2022-08-19T15:41:44;27.30;72.90